Time;durP1;ratioP1;P1;durP2;ratioP2;P2;SDS_P1;SDS_P2;PMS_P1;PMS_P2;Temp;Humidity;BMP_temperature;BMP_pressure;BME280_temperature;BME280_humidity;BME280_pressure;Samples;Min_cycle;Max_cycle;Signal;HPM_P1;HPM_P2
2023/01/15 00:01:52;;;;;;;2.30;0.80;;;;;;;6.57;98.74;92984.75;5051472;28;20033;-65
2023/01/15 00:04:18;;;;;;;2.15;0.90;;;;;;;6.64;97.81;92975.69;5051106;28;20121;-65
2023/01/15 00:06:45;;;;;;;2.10;1.10;;;;;;;6.56;97.95;92975.81;5052022;28;20045;-65
2023/01/15 00:09:15;;;;;;;2.72;1.10;;;;;;;6.74;96.03;92970.06;5051323;28;20044;-65
2023/01/15 00:11:42;;;;;;;2.20;1.00;;;;;;;6.73;96.52;92976.69;5051158;28;20121;-65
2023/01/15 00:14:09;;;;;;;2.00;0.80;;;;;;;6.88;94.94;92960.91;5051692;28;20049;-65
2023/01/15 00:16:36;;;;;;;2.10;0.80;;;;;;;6.91;95.10;92960.06;5032914;28;20051;-64
2023/01/15 00:19:03;;;;;;;2.10;1.00;;;;;;;6.96;94.03;92966.97;5051282;28;20372;-65
2023/01/15 00:21:30;;;;;;;2.05;0.80;;;;;;;7.05;93.58;92964.50;5051057;28;20059;-65
2023/01/15 00:29:30;;;;;;;2.00;1.00;;;;;;;7.17;92.85;92939.34;5050882;28;20041;-65
2023/01/15 00:32:00;;;;;;;2.20;1.05;;;;;;;7.23;93.90;92941.59;5051238;28;20057;-65
2023/01/15 00:34:28;;;;;;;2.97;0.88;;;;;;;7.23;94.22;92939.63;5032780;28;20062;-65
2023/01/15 00:36:55;;;;;;;2.22;0.95;;;;;;;7.35;94.18;92939.00;5051451;28;20045;-65
2023/01/15 00:39:25;;;;;;;2.07;0.50;;;;;;;7.50;94.07;92928.56;5050729;28;20567;-65
2023/01/15 00:41:53;;;;;;;2.08;0.98;;;;;;;7.44;95.22;92941.16;5051011;28;20394;-65
2023/01/15 00:44:20;;;;;;;1.70;0.73;;;;;;;7.55;95.16;92935.53;5050504;28;20248;-65
2023/01/15 00:46:47;;;;;;;1.70;0.70;;;;;;;7.64;94.94;92934.94;5051075;28;20090;-65
2023/01/15 00:49:14;;;;;;;2.08;0.73;;;;;;;7.69;95.79;92934.47;5050384;28;20049;-65
2023/01/15 00:51:40;;;;;;;1.80;0.70;;;;;;;7.69;95.67;92929.78;5051014;28;20051;-65
2023/01/15 00:54:07;;;;;;;1.70;0.70;;;;;;;7.61;96.63;92912.00;5050776;28;20041;-66
2023/01/15 00:56:34;;;;;;;1.70;0.85;;;;;;;7.60;97.22;92900.28;5050531;28;20441;-66
2023/01/15 00:59:03;;;;;;;2.30;0.50;;;;;;;7.63;96.91;92909.63;5050793;28;20044;-65
2023/01/15 01:01:29;;;;;;;1.80;0.60;;;;;;;7.62;97.31;92916.25;5050330;28;20057;-65
2023/01/15 01:03:56;;;;;;;2.47;0.80;;;;;;;7.54;98.06;92912.13;5050528;28;20424;-64
2023/01/15 01:06:23;;;;;;;1.70;0.70;;;;;;;7.52;99.07;92914.50;5050427;28;20048;-65
2023/01/15 01:08:50;;;;;;;3.10;1.00;;;;;;;7.64;99.13;92915.84;5050286;28;20507;-65
2023/01/15 01:11:22;;;;;;;2.15;0.70;;;;;;;7.67;99.63;92923.97;5048806;28;20053;-65
2023/01/15 01:13:49;;;;;;;1.60;0.50;;;;;;;7.62;100.00;92921.72;5050397;28;20037;-65
2023/01/15 01:16:32;;;;;;;2.87;0.60;;;;;;;7.53;100.00;92916.81;5049521;28;20048;-65
2023/01/15 01:19:02;;;;;;;2.10;0.70;;;;;;;7.48;100.00;92916.53;5050667;28;20386;-65
2023/01/15 01:21:29;;;;;;;3.40;0.80;;;;;;;7.35;100.00;92914.44;5050030;28;20416;-66
2023/01/15 01:24:00;;;;;;;2.67;0.80;;;;;;;7.32;100.00;92922.69;5049715;28;20037;-65
2023/01/15 01:26:27;;;;;;;1.80;0.77;;;;;;;7.30;100.00;92925.84;5049608;28;20409;-65
2023/01/15 01:28:55;;;;;;;1.37;0.43;;;;;;;7.34;100.00;92907.44;5050470;28;20106;-65
2023/01/15 01:31:23;;;;;;;1.83;0.70;;;;;;;7.31;100.00;92910.25;5032098;28;20121;-65
2023/01/15 01:33:53;;;;;;;2.33;0.80;;;;;;;7.28;100.00;92927.44;5050437;28;20686;-65
2023/01/15 01:36:26;;;;;;;2.13;0.90;;;;;;;7.24;100.00;92919.31;5049806;28;20401;-66
2023/01/15 01:38:52;;;;;;;2.70;0.60;;;;;;;7.32;100.00;92895.41;5050262;28;20047;-65
2023/01/15 01:41:19;;;;;;;1.93;0.50;;;;;;;7.29;100.00;92904.44;5049748;28;20055;-65
2023/01/15 01:44:00;;;;;;;1.55;0.68;;;;;;;7.26;100.00;92899.81;5049963;28;20051;-65
2023/01/15 01:46:29;;;;;;;2.05;0.68;;;;;;;7.26;100.00;92894.34;5049768;28;20048;-65
2023/01/15 01:49:05;;;;;;;1.98;0.70;;;;;;;7.38;100.00;92888.25;5050297;28;20423;-65
2023/01/15 01:51:37;;;;;;;1.40;0.60;;;;;;;7.42;100.00;92897.16;5049955;28;20041;-65
2023/01/15 01:54:05;;;;;;;2.10;0.90;;;;;;;7.35;100.00;92891.84;5050093;28;20041;-64
2023/01/15 01:56:34;;;;;;;1.60;0.70;;;;;;;7.50;100.00;92892.31;5049510;28;20412;-64
2023/01/15 01:59:03;;;;;;;1.60;0.65;;;;;;;7.38;100.00;92878.13;5049879;28;20407;-65
2023/01/15 02:01:30;;;;;;;1.80;0.70;;;;;;;7.39;100.00;92890.56;5049408;28;20045;-66
2023/01/15 02:03:57;;;;;;;2.35;0.70;;;;;;;7.39;100.00;92870.72;5049948;28;20041;-65
2023/01/15 02:06:25;;;;;;;1.63;0.67;;;;;;;7.46;100.00;92895.13;5049560;28;20053;-65
2023/01/15 02:08:52;;;;;;;1.50;0.52;;;;;;;7.48;100.00;92870.13;5049836;28;20041;-65
2023/01/15 02:11:22;;;;;;;1.65;0.60;;;;;;;7.42;100.00;92872.59;5049114;28;20070;-65
2023/01/15 02:13:57;;;;;;;1.90;0.70;;;;;;;7.47;100.00;92861.19;5050043;28;20401;-65
2023/01/15 02:16:46;;;;;;;2.30;0.80;;;;;;;7.46;100.00;92859.63;5049408;28;20053;-65
2023/01/15 02:19:50;;;;;;;1.53;0.50;;;;;;;7.46;100.00;92850.69;5049658;28;20053;-65
2023/01/15 02:22:39;;;;;;;1.60;0.70;;;;;;;7.52;100.00;92854.44;5049043;28;20098;-65
2023/01/15 02:25:32;;;;;;;1.40;0.50;;;;;;;7.51;100.00;92852.94;5049379;28;20044;-65
2023/01/15 02:28:17;;;;;;;2.60;0.80;;;;;;;7.48;100.00;92843.59;5048616;28;20409;-65
2023/01/15 02:30:47;;;;;;;1.90;0.65;;;;;;;7.47;100.00;92831.16;5048814;28;20885;-65
2023/01/15 02:33:22;;;;;;;1.57;0.60;;;;;;;7.48;100.00;92829.94;5049287;28;20045;-65
2023/01/15 02:35:59;;;;;;;1.60;0.70;;;;;;;7.49;100.00;92830.75;5049575;28;20037;-65
2023/01/15 02:38:31;;;;;;;1.77;0.70;;;;;;;7.57;100.00;92818.47;5031494;28;20102;-66
2023/01/15 02:41:01;;;;;;;1.60;0.45;;;;;;;7.55;100.00;92826.31;5049867;28;20052;-66
2023/01/15 02:43:33;;;;;;;1.70;0.95;;;;;;;7.63;100.00;92827.69;5048030;28;20401;-65
2023/01/15 02:46:02;;;;;;;2.60;0.77;;;;;;;7.64;100.00;92815.56;5049761;28;20382;-65
2023/01/15 02:48:31;;;;;;;1.30;0.40;;;;;;;7.65;100.00;92805.44;5031140;28;20493;-65
2023/01/15 02:51:06;;;;;;;1.58;0.60;;;;;;;7.68;100.00;92810.78;5052520;28;20033;-65
2023/01/15 02:53:37;;;;;;;1.95;0.60;;;;;;;7.76;100.00;92814.16;5052473;28;20055;-66
2023/01/15 02:56:10;;;;;;;1.60;0.50;;;;;;;7.77;100.00;92810.22;5053329;28;20478;-66
2023/01/15 02:58:40;;;;;;;1.60;0.60;;;;;;;7.74;100.00;92809.09;5052836;28;20084;-65
2023/01/15 03:01:18;;;;;;;1.52;0.50;;;;;;;7.73;100.00;92804.84;5053048;28;20041;-66
2023/01/15 03:04:12;;;;;;;1.50;0.70;;;;;;;7.79;100.00;92811.34;5052205;28;20753;-66
2023/01/15 03:06:51;;;;;;;1.70;0.60;;;;;;;7.81;100.00;92805.47;5052030;28;20041;-66
2023/01/15 03:09:19;;;;;;;2.60;1.00;;;;;;;7.72;100.00;92803.28;5052381;28;20447;-66
2023/01/15 03:11:57;;;;;;;1.80;0.70;;;;;;;7.74;100.00;92789.22;5052804;28;20102;-66
2023/01/15 03:14:48;;;;;;;1.50;0.60;;;;;;;7.68;100.00;92782.72;5052231;28;20037;-66
2023/01/15 03:17:22;;;;;;;1.95;0.60;;;;;;;7.70;100.00;92783.84;5052390;28;20051;-65
2023/01/15 03:19:57;;;;;;;2.03;0.60;;;;;;;7.70;100.00;92774.88;5052747;28;20382;-65
2023/01/15 03:22:34;;;;;;;1.63;0.80;;;;;;;7.71;100.00;92779.94;5051614;28;20052;-65
2023/01/15 03:25:14;;;;;;;1.57;0.43;;;;;;;7.67;100.00;92779.25;5052889;28;20045;-65
2023/01/15 03:27:41;;;;;;;1.70;0.50;;;;;;;7.63;100.00;92791.44;5051215;28;21683;-65
2023/01/15 03:30:17;;;;;;;1.40;0.60;;;;;;;7.62;100.00;92770.78;5052487;28;20063;-65
2023/01/15 03:32:44;;;;;;;1.73;0.70;;;;;;;7.58;100.00;92787.22;5051499;28;20672;-65
2023/01/15 03:35:39;;;;;;;1.70;0.70;;;;;;;7.63;100.00;92785.97;5052222;28;20097;-64
2023/01/15 03:38:06;;;;;;;1.60;0.60;;;;;;;7.63;100.00;92788.72;5040833;28;20679;-65
2023/01/15 03:40:38;;;;;;;1.40;0.50;;;;;;;7.62;100.00;92778.97;5051418;28;20059;-65
2023/01/15 03:46:03;;;;;;;1.30;0.45;;;;;;;7.53;100.00;92780.31;5050931;28;21190;-65
2023/01/15 03:48:38;;;;;;;1.40;0.52;;;;;;;7.49;100.00;92787.06;5051945;28;20041;-65
2023/01/15 03:51:24;;;;;;;1.40;0.57;;;;;;;7.48;100.00;92791.72;5051944;28;20041;-65
2023/01/15 03:53:56;;;;;;;1.40;0.40;;;;;;;7.52;100.00;92786.97;5051095;28;20948;-65
2023/01/15 03:56:32;;;;;;;1.40;0.47;;;;;;;7.51;100.00;92796.34;5051360;28;20041;-65
2023/01/15 03:59:06;;;;;;;2.00;0.50;;;;;;;7.55;100.00;92780.66;5052028;28;20390;-66
2023/01/15 04:01:37;;;;;;;2.78;0.80;;;;;;;7.52;100.00;92770.59;5032903;28;20057;-64
2023/01/15 04:04:05;;;;;;;1.30;0.47;;;;;;;7.53;100.00;92766.66;5051982;28;20041;-65
2023/01/15 04:06:37;;;;;;;1.50;0.65;;;;;;;7.56;100.00;92778.69;5051372;28;20397;-65
2023/01/15 04:09:07;;;;;;;1.40;0.50;;;;;;;7.58;100.00;92773.59;5052053;28;20686;-65
2023/01/15 04:11:33;;;;;;;2.58;1.00;;;;;;;7.44;100.00;92779.34;5051548;28;20044;-64
2023/01/15 04:14:00;;;;;;;1.60;0.80;;;;;;;7.54;100.00;92775.63;5051694;28;20055;-64
2023/01/15 04:16:28;;;;;;;1.60;0.60;;;;;;;7.44;100.00;92765.72;5051151;28;20504;-64
2023/01/15 04:18:56;;;;;;;1.30;0.45;;;;;;;7.41;100.00;92753.69;5051432;28;20045;-64
2023/01/15 04:21:23;;;;;;;1.77;0.77;;;;;;;7.47;100.00;92749.25;5050625;28;20037;-64
2023/01/15 04:23:49;;;;;;;1.40;0.40;;;;;;;7.47;100.00;92762.16;5050848;28;20044;-64
2023/01/15 04:26:16;;;;;;;1.70;0.70;;;;;;;7.53;100.00;92755.75;5050756;28;20051;-64
2023/01/15 04:28:44;;;;;;;1.30;0.40;;;;;;;7.53;100.00;92765.91;5051397;28;20045;-63
2023/01/15 04:31:10;;;;;;;1.33;0.50;;;;;;;7.49;100.00;92755.06;5051102;28;20049;-64
2023/01/15 04:33:38;;;;;;;1.60;0.60;;;;;;;7.53;100.00;92749.53;5051009;28;20049;-64
2023/01/15 04:36:07;;;;;;;1.20;0.40;;;;;;;7.50;100.00;92742.94;5051252;28;20053;-64
2023/01/15 04:38:36;;;;;;;1.45;0.52;;;;;;;7.51;100.00;92743.72;5050890;28;20045;-64
2023/01/15 04:44:07;;;;;;;1.77;0.40;;;;;;;7.47;100.00;92737.59;5050059;28;20630;-65
2023/01/15 04:46:34;;;;;;;1.80;0.70;;;;;;;7.54;100.00;92743.63;5050703;28;20413;-64
2023/01/15 04:49:02;;;;;;;1.30;0.50;;;;;;;7.50;100.00;92742.19;5050700;28;20063;-64
2023/01/15 04:51:29;;;;;;;1.50;0.70;;;;;;;7.39;100.00;92728.78;5050352;28;20055;-65
2023/01/15 04:53:55;;;;;;;1.57;0.67;;;;;;;7.41;100.00;92740.03;5050874;28;20422;-64
2023/01/15 04:56:22;;;;;;;1.33;0.50;;;;;;;7.52;100.00;92721.44;5050182;28;20401;-65
2023/01/15 04:58:49;;;;;;;1.95;0.80;;;;;;;7.44;100.00;92716.56;5033144;28;20063;-64
2023/01/15 05:01:18;;;;;;;1.40;0.50;;;;;;;7.55;100.00;92720.59;5050253;28;20474;-64
2023/01/15 05:03:44;;;;;;;1.70;0.57;;;;;;;7.49;100.00;92727.75;5050793;28;20505;-64
2023/01/15 05:06:13;;;;;;;1.40;0.40;;;;;;;7.50;100.00;92721.09;5050934;28;20448;-64
2023/01/15 05:08:39;;;;;;;1.67;0.60;;;;;;;7.59;100.00;92713.09;5049458;28;21536;-64
2023/01/15 05:11:06;;;;;;;1.50;0.70;;;;;;;7.60;100.00;92711.13;5050274;28;20068;-64
2023/01/15 05:13:34;;;;;;;1.52;0.60;;;;;;;7.59;100.00;92729.47;5050105;28;20098;-63
2023/01/15 05:16:11;;;;;;;1.73;0.57;;;;;;;7.58;100.00;92721.72;5050365;28;20053;-64
2023/01/15 05:18:38;;;;;;;1.40;0.40;;;;;;;7.61;100.00;92720.88;5050459;28;20074;-64
2023/01/15 05:21:05;;;;;;;1.30;0.30;;;;;;;7.66;100.00;92723.06;5050288;28;20045;-64
2023/01/15 05:23:32;;;;;;;1.30;0.45;;;;;;;7.60;100.00;92720.06;5049950;28;20508;-64
2023/01/15 05:26:02;;;;;;;1.20;0.40;;;;;;;7.58;100.00;92717.00;5049957;28;20437;-64
2023/01/15 05:28:28;;;;;;;1.40;0.50;;;;;;;7.44;100.00;92705.66;5049692;28;20051;-65
2023/01/15 05:30:55;;;;;;;1.40;0.60;;;;;;;7.44;100.00;92703.69;5050380;28;20052;-64
2023/01/15 05:33:22;;;;;;;1.65;0.30;;;;;;;7.33;100.00;92705.91;5049693;28;20119;-64
2023/01/15 05:35:48;;;;;;;1.52;0.50;;;;;;;7.29;100.00;92727.81;5049892;28;20060;-63
2023/01/15 05:38:15;;;;;;;1.75;0.40;;;;;;;7.21;100.00;92707.34;5048590;28;20039;-64
2023/01/15 05:40:42;;;;;;;1.27;0.50;;;;;;;7.24;100.00;92724.81;5050267;28;20404;-64
2023/01/15 05:43:08;;;;;;;1.20;0.30;;;;;;;7.11;100.00;92717.28;5032356;28;20048;-64
2023/01/15 05:45:35;;;;;;;1.30;0.43;;;;;;;6.99;100.00;92715.97;5049454;28;20051;-64
2023/01/15 05:48:02;;;;;;;1.40;0.60;;;;;;;7.05;100.00;92707.31;5050080;28;20059;-64
2023/01/15 05:50:28;;;;;;;1.30;0.35;;;;;;;7.11;100.00;92717.28;5031861;28;20055;-65
2023/01/15 05:52:55;;;;;;;1.50;0.70;;;;;;;7.02;100.00;92714.34;5050078;28;20123;-64
2023/01/15 05:55:22;;;;;;;1.50;0.60;;;;;;;7.09;100.00;92718.91;5049565;28;20067;-65
2023/01/15 05:57:48;;;;;;;1.38;0.40;;;;;;;7.07;100.00;92713.88;5037081;28;20049;-65
2023/01/15 06:00:16;;;;;;;1.40;0.60;;;;;;;7.15;100.00;92722.69;5049228;28;20041;-64
2023/01/15 06:02:42;;;;;;;1.30;0.40;;;;;;;7.06;100.00;92706.88;5050148;28;20037;-65
2023/01/15 06:05:09;;;;;;;1.50;0.68;;;;;;;7.14;100.00;92704.75;5049887;28;20037;-64
2023/01/15 06:07:36;;;;;;;1.47;0.50;;;;;;;6.99;100.00;92707.03;5049404;28;20041;-66
2023/01/15 06:10:03;;;;;;;1.40;0.40;;;;;;;7.00;100.00;92706.63;5049843;28;20047;-64
2023/01/15 06:12:31;;;;;;;1.60;0.80;;;;;;;6.89;100.00;92710.75;5049353;28;20102;-64
2023/01/15 06:14:58;;;;;;;1.45;0.57;;;;;;;6.88;100.00;92703.75;5049576;28;20041;-65
2023/01/15 06:17:24;;;;;;;1.75;0.70;;;;;;;6.75;100.00;92709.84;5049370;28;20106;-65
2023/01/15 06:19:51;;;;;;;1.50;0.63;;;;;;;6.79;100.00;92716.00;5050114;28;20037;-65
2023/01/15 06:22:18;;;;;;;1.58;0.50;;;;;;;6.73;100.00;92716.91;5049006;28;20053;-65
2023/01/15 06:24:44;;;;;;;1.50;0.50;;;;;;;6.73;100.00;92716.91;5050906;28;20051;-65
2023/01/15 06:27:11;;;;;;;1.60;0.82;;;;;;;6.71;100.00;92716.56;5053272;28;20051;-65
2023/01/15 06:29:38;;;;;;;1.60;0.60;;;;;;;6.70;100.00;92729.44;5053683;28;20374;-64
2023/01/15 06:32:04;;;;;;;1.63;0.60;;;;;;;6.63;100.00;92710.47;5053680;28;20045;-65
2023/01/15 06:34:31;;;;;;;1.30;0.47;;;;;;;6.66;100.00;92720.56;5034962;28;20475;-64
2023/01/15 06:36:58;;;;;;;1.90;0.90;;;;;;;6.70;100.00;92715.00;5053278;28;20045;-64
2023/01/15 06:39:24;;;;;;;1.50;0.65;;;;;;;6.62;100.00;92714.41;5052962;28;20045;-64
2023/01/15 06:47:21;;;;;;;1.42;0.57;;;;;;;6.55;100.00;92715.31;5052357;28;20272;-65
2023/01/15 06:49:54;;;;;;;1.70;0.80;;;;;;;6.55;100.00;92709.09;5053503;28;20049;-65
2023/01/15 06:52:23;;;;;;;1.70;0.70;;;;;;;6.54;100.00;92699.34;5052306;28;20458;-64
2023/01/15 06:54:50;;;;;;;1.70;0.68;;;;;;;6.53;100.00;92703.28;5053191;28;20113;-65
2023/01/15 06:57:19;;;;;;;1.80;0.50;;;;;;;6.51;100.00;92708.38;5052238;28;20039;-65
2023/01/15 06:59:47;;;;;;;1.60;0.60;;;;;;;6.56;100.00;92703.22;5052944;28;20132;-65
2023/01/15 07:02:14;;;;;;;1.45;0.60;;;;;;;6.53;100.00;92703.28;5052365;28;20060;-65
2023/01/15 07:04:41;;;;;;;1.48;0.60;;;;;;;6.48;100.00;92704.56;5053214;28;20071;-65
2023/01/15 07:07:07;;;;;;;1.48;0.55;;;;;;;6.53;100.00;92703.28;5052706;28;20041;-65
2023/01/15 07:09:34;;;;;;;1.70;0.53;;;;;;;6.57;100.00;92699.28;5052383;28;20088;-65
2023/01/15 07:12:01;;;;;;;2.28;0.60;;;;;;;6.57;100.00;92706.72;5052593;28;20049;-65
2023/01/15 07:14:28;;;;;;;1.30;0.50;;;;;;;6.64;100.00;92697.63;5052187;28;20037;-65
2023/01/15 07:16:54;;;;;;;1.30;0.43;;;;;;;6.66;100.00;92706.94;5052511;28;20044;-65
2023/01/15 07:19:21;;;;;;;1.40;0.47;;;;;;;6.74;100.00;92686.50;5052045;28;20045;-64
2023/01/15 07:21:48;;;;;;;1.30;0.40;;;;;;;6.81;100.00;92691.03;5052713;28;20048;-65
2023/01/15 07:24:16;;;;;;;1.40;0.40;;;;;;;6.83;100.00;92699.56;5051873;28;20037;-65
2023/01/15 07:26:44;;;;;;;1.50;0.70;;;;;;;6.87;100.00;92711.16;5052162;28;20047;-65
2023/01/15 07:29:11;;;;;;;1.80;0.80;;;;;;;6.87;100.00;92716.63;5052395;28;20041;-64
2023/01/15 07:31:39;;;;;;;1.40;0.60;;;;;;;7.01;100.00;92712.84;5051542;28;21314;-66
2023/01/15 07:34:06;;;;;;;1.67;0.53;;;;;;;6.96;100.00;92721.50;5052447;28;20056;-65
2023/01/15 07:36:33;;;;;;;2.17;0.80;;;;;;;6.94;100.00;92721.94;5051740;28;20388;-64
2023/01/15 07:38:59;;;;;;;1.50;0.60;;;;;;;6.89;100.00;92711.50;5052242;28;20033;-64
2023/01/15 07:49:50;;;;;;;1.70;0.60;;;;;;;6.91;100.00;92717.31;5051614;28;20635;-63
2023/01/15 07:52:18;;;;;;;1.60;0.70;;;;;;;6.91;100.00;92713.81;5034076;28;20482;-63
2023/01/15 07:54:47;;;;;;;1.77;0.75;;;;;;;6.84;100.00;92728.38;5052089;28;20041;-64
2023/01/15 07:57:17;;;;;;;1.80;0.90;;;;;;;6.79;100.00;92728.88;5051368;28;20037;-63
2023/01/15 07:59:44;;;;;;;1.60;0.70;;;;;;;6.75;100.00;92734.38;5052200;28;20045;-64
2023/01/15 08:02:11;;;;;;;1.58;0.70;;;;;;;6.78;100.00;92751.84;5051692;28;20075;-64
2023/01/15 08:04:39;;;;;;;2.13;1.05;;;;;;;6.75;100.00;92756.19;5051332;28;20859;-64
2023/01/15 08:07:06;;;;;;;3.55;1.00;;;;;;;6.78;100.00;92771.72;5051636;28;20072;-64
2023/01/15 08:09:34;;;;;;;1.88;0.93;;;;;;;6.73;100.00;92790.53;5050854;28;20052;-64
2023/01/15 08:17:35;;;;;;;2.88;1.73;;;;;;;5.02;100.00;92843.66;5050982;28;20067;-64
2023/01/15 08:20:04;;;;;;;3.17;0.90;;;;;;;4.88;100.00;92860.91;5051649;28;20040;-63
2023/01/15 08:22:31;;;;;;;4.35;2.10;;;;;;;4.55;100.00;92874.03;5050560;28;20119;-63
2023/01/15 08:24:58;;;;;;;5.20;1.37;;;;;;;4.47;100.00;92897.03;5051255;28;20512;-63
2023/01/15 08:27:25;;;;;;;2.22;0.70;;;;;;;4.33;100.00;92900.63;5050089;28;20101;-64
2023/01/15 08:29:52;;;;;;;3.00;1.30;;;;;;;4.43;100.00;92904.41;5051192;28;20501;-63
2023/01/15 08:32:19;;;;;;;4.00;1.83;;;;;;;4.37;100.00;92918.44;5050605;28;20049;-63
2023/01/15 08:34:45;;;;;;;5.30;2.40;;;;;;;4.17;100.00;92918.19;5050957;28;20059;-64
2023/01/15 08:37:12;;;;;;;6.30;2.57;;;;;;;4.05;100.00;92926.81;5051216;28;20051;-64
2023/01/15 08:39:39;;;;;;;2.03;1.10;;;;;;;4.22;100.00;92918.94;5049722;28;20879;-63
2023/01/15 08:42:06;;;;;;;6.70;2.90;;;;;;;3.95;100.00;92912.13;5050841;28;20112;-63
2023/01/15 08:44:33;;;;;;;1.92;0.95;;;;;;;3.78;100.00;92938.22;5050287;28;20371;-64
2023/01/15 08:46:59;;;;;;;5.60;2.70;;;;;;;3.95;100.00;92935.81;5050137;28;20110;-64
2023/01/15 08:49:26;;;;;;;3.40;1.30;;;;;;;3.86;100.00;92951.75;5050357;28;20049;-64
2023/01/15 08:51:53;;;;;;;4.18;2.08;;;;;;;3.97;100.00;92955.19;5050525;28;20106;-64
2023/01/15 08:54:23;;;;;;;2.25;1.00;;;;;;;4.01;100.00;92953.22;5050040;28;20443;-64
2023/01/15 08:56:50;;;;;;;2.88;0.77;;;;;;;3.65;100.00;92944.50;5050851;28;20051;-63
2023/01/15 08:59:17;;;;;;;1.48;0.55;;;;;;;3.49;100.00;92953.84;5050189;28;20110;-63
2023/01/15 09:01:44;;;;;;;2.87;1.30;;;;;;;3.53;100.00;92946.47;5050651;28;20070;-63
2023/01/15 09:04:16;;;;;;;1.90;0.80;;;;;;;3.45;100.00;92942.25;5050698;28;20547;-63
2023/01/15 09:06:43;;;;;;;5.00;0.65;;;;;;;3.46;100.00;92949.25;5049493;28;20040;-64
2023/01/15 09:09:11;;;;;;;1.60;0.50;;;;;;;3.38;100.00;92956.63;5050629;28;20446;-64
2023/01/15 09:11:40;;;;;;;2.05;0.80;;;;;;;3.35;100.00;92976.38;5049976;28;20614;-64
2023/01/15 09:14:08;;;;;;;1.27;0.40;;;;;;;3.25;100.00;92984.56;5032669;28;20071;-64
2023/01/15 09:16:56;;;;;;;1.70;0.60;;;;;;;3.34;100.00;92976.75;5049476;28;20413;-63
2023/01/15 09:19:23;;;;;;;1.65;0.68;;;;;;;3.28;100.00;92989.97;5049886;28;20043;-64
2023/01/15 09:21:49;;;;;;;1.77;0.68;;;;;;;3.29;100.00;93007.78;5050581;28;20090;-64
2023/01/15 09:24:16;;;;;;;2.60;1.10;;;;;;;3.63;100.00;93018.13;5049381;28;20066;-63
2023/01/15 09:26:43;;;;;;;2.00;0.70;;;;;;;3.17;100.00;93019.03;5050168;28;20037;-64
2023/01/15 09:29:10;;;;;;;1.60;0.60;;;;;;;3.39;100.00;93027.91;5032535;28;20053;-64
2023/01/15 09:31:36;;;;;;;1.60;0.77;;;;;;;3.31;100.00;93021.72;5049766;28;20267;-63
2023/01/15 09:34:03;;;;;;;3.45;1.30;;;;;;;3.62;100.00;93013.88;5049814;28;20037;-63
2023/01/15 09:36:32;;;;;;;2.10;0.93;;;;;;;3.59;100.00;93009.25;5049286;28;20440;-63
2023/01/15 09:39:00;;;;;;;2.53;1.10;;;;;;;3.32;100.00;93007.00;5049802;28;20486;-63
2023/01/15 09:42:05;;;;;;;1.70;0.75;;;;;;;3.39;100.00;93012.41;5049409;28;20048;-63
2023/01/15 09:44:53;;;;;;;2.45;1.10;;;;;;;3.48;100.00;93025.56;5049119;28;20444;-65
2023/01/15 09:47:25;;;;;;;2.20;0.50;;;;;;;3.34;100.00;93009.31;5047675;28;20048;-65
2023/01/15 09:49:54;;;;;;;2.08;0.93;;;;;;;3.73;100.00;93024.69;5050049;28;20440;-62
2023/01/15 09:52:40;;;;;;;3.03;0.90;;;;;;;3.76;100.00;93032.84;5049107;28;20041;-63
2023/01/15 09:55:21;;;;;;;2.00;0.80;;;;;;;3.23;100.00;93047.31;5049897;28;20045;-62
2023/01/15 09:57:54;;;;;;;4.95;1.90;;;;;;;3.46;100.00;93051.50;5035944;28;20656;-63
2023/01/15 10:00:23;;;;;;;1.77;0.85;;;;;;;3.62;100.00;93060.00;5051258;28;20183;-63
2023/01/15 10:03:28;;;;;;;2.15;1.20;;;;;;;3.55;100.00;93057.31;5054058;28;20063;-63
2023/01/15 10:06:11;;;;;;;1.63;0.67;;;;;;;3.22;100.00;93045.78;5053211;28;20413;-63
2023/01/15 10:08:44;;;;;;;2.03;0.70;;;;;;;3.29;100.00;93048.44;5052965;28;21661;-64
2023/01/15 10:14:44;;;;;;;2.17;0.90;;;;;;;3.30;100.00;93076.34;5052662;28;21388;-63
2023/01/15 10:17:19;;;;;;;1.92;0.93;;;;;;;3.23;100.00;93066.28;5053733;28;20051;-64
2023/01/15 10:19:46;;;;;;;2.00;0.70;;;;;;;3.38;100.00;93064.31;5053058;28;20872;-63
2023/01/15 10:22:45;;;;;;;3.22;1.15;;;;;;;3.30;100.00;93065.47;5053487;28;20570;-62
2023/01/15 10:25:16;;;;;;;3.33;1.70;;;;;;;3.49;100.00;93065.06;5053996;28;20051;-63
2023/01/15 10:27:49;;;;;;;6.45;3.25;;;;;;;3.36;100.00;93067.44;5052377;28;20469;-64
2023/01/15 10:30:21;;;;;;;3.25;1.63;;;;;;;3.64;100.00;93071.22;5053414;28;20049;-64
2023/01/15 10:32:57;;;;;;;9.20;6.40;;;;;;;3.75;100.00;93063.06;5053553;28;20044;-63
2023/01/15 10:35:57;;;;;;;6.57;4.15;;;;;;;3.47;100.00;93066.63;5053160;28;20048;-64
2023/01/15 10:38:39;;;;;;;3.45;1.27;;;;;;;3.28;100.00;93067.81;5053016;28;20061;-64
2023/01/15 10:41:23;;;;;;;1.75;0.80;;;;;;;2.79;100.00;93073.66;5053317;28;20110;-65
2023/01/15 10:44:05;;;;;;;2.08;1.00;;;;;;;2.82;100.00;93077.53;5035074;28;20052;-64
2023/01/15 10:46:37;;;;;;;1.80;0.70;;;;;;;2.93;100.00;93081.00;5052766;28;20043;-64
2023/01/15 10:49:18;;;;;;;1.73;0.70;;;;;;;3.03;100.00;93094.97;5053153;28;20536;-64
2023/01/15 10:52:06;;;;;;;2.60;1.20;;;;;;;3.27;100.00;93101.53;5052189;28;20877;-64
2023/01/15 10:54:41;;;;;;;1.83;0.70;;;;;;;2.86;100.00;93107.31;5052616;28;20051;-65
2023/01/15 10:57:12;;;;;;;2.55;1.20;;;;;;;3.04;100.00;93105.41;5053132;28;20410;-64
2023/01/15 11:00:11;;;;;;;3.43;1.30;;;;;;;3.13;100.00;93108.50;5034314;28;20658;-65
2023/01/15 11:02:41;;;;;;;4.22;1.50;;;;;;;3.22;100.00;93105.41;5012676;28;21578;-64
2023/01/15 11:05:15;;;;;;;2.00;1.10;;;;;;;2.45;100.00;93108.44;5053148;28;20047;-64
2023/01/15 11:07:48;;;;;;;2.72;1.27;;;;;;;2.55;100.00;93107.69;5051634;28;20675;-64
2023/01/15 11:10:35;;;;;;;3.47;1.42;;;;;;;2.77;100.00;93113.91;5051966;28;20049;-64
2023/01/15 11:22:07;;;;;;;2.15;0.98;;;;;;;2.48;100.00;93139.41;5020312;28;20848;-64
2023/01/15 11:24:47;;;;;;;2.78;1.60;;;;;;;2.64;100.00;93144.47;5052031;28;20452;-64
2023/01/15 11:27:17;;;;;;;2.37;1.00;;;;;;;2.86;100.00;93139.84;5051622;28;20048;-64
2023/01/15 11:29:45;;;;;;;2.47;1.00;;;;;;;2.33;100.00;93149.41;5052700;28;20044;-63
2023/01/15 11:32:38;;;;;;;2.75;1.38;;;;;;;2.65;100.00;93157.63;5052165;28;20048;-63
2023/01/15 11:35:08;;;;;;;2.67;1.52;;;;;;;2.32;100.00;93153.28;5048025;28;20838;-64
2023/01/15 11:37:34;;;;;;;2.30;1.42;;;;;;;2.42;100.00;93163.38;5051687;28;20044;-63
2023/01/15 11:40:06;;;;;;;2.23;1.00;;;;;;;2.26;100.00;93161.00;5052315;28;20040;-63
2023/01/15 11:51:09;;;;;;;3.15;1.27;;;;;;;2.59;100.00;93191.66;5050747;28;20650;-63
2023/01/15 11:53:54;;;;;;;1.80;0.70;;;;;;;2.42;100.00;93200.50;5051542;28;20057;-63
2023/01/15 11:56:24;;;;;;;1.80;0.70;;;;;;;2.26;100.00;93201.59;5038335;28;20063;-63
2023/01/15 11:58:56;;;;;;;2.13;1.10;;;;;;;2.50;100.00;93208.28;5051927;28;20040;-64
2023/01/15 12:01:36;;;;;;;1.92;0.85;;;;;;;2.54;100.00;93216.41;5051562;28;20535;-64
2023/01/15 12:04:25;;;;;;;1.95;0.93;;;;;;;2.28;100.00;93212.81;5034069;28;20051;-63
2023/01/15 12:06:52;;;;;;;1.60;0.70;;;;;;;2.42;100.00;93211.34;5043888;28;20378;-63
2023/01/15 12:09:39;;;;;;;2.28;0.70;;;;;;;2.30;100.00;93215.94;5051214;28;20041;-63
2023/01/15 12:12:23;;;;;;;1.40;0.60;;;;;;;2.12;100.00;93228.59;5052165;28;20047;-64
2023/01/15 12:15:26;;;;;;;1.70;0.70;;;;;;;2.14;100.00;93223.59;5051074;28;20320;-64
2023/01/15 12:18:01;;;;;;;1.50;0.60;;;;;;;2.24;100.00;93230.22;5050805;28;20051;-63
2023/01/15 12:20:58;;;;;;;1.50;0.50;;;;;;;2.11;100.00;93218.91;5051038;28;20049;-63
2023/01/15 12:23:43;;;;;;;2.00;0.60;;;;;;;2.13;100.00;93235.56;5039464;28;20425;-64
2023/01/15 12:26:47;;;;;;;3.25;1.55;;;;;;;2.08;100.00;93242.13;5051165;28;20036;-64
2023/01/15 12:29:29;;;;;;;2.30;0.90;;;;;;;2.09;100.00;93248.28;5050092;28;20113;-63
2023/01/15 12:32:00;;;;;;;2.35;0.60;;;;;;;2.06;100.00;93260.66;5051333;28;20060;-64
2023/01/15 12:34:42;;;;;;;2.63;1.20;;;;;;;2.27;100.00;93254.56;5051024;28;20044;-63
2023/01/15 12:37:19;;;;;;;1.75;0.85;;;;;;;2.33;100.00;93258.47;5033362;28;20486;-64
2023/01/15 12:39:50;;;;;;;1.65;0.70;;;;;;;2.25;100.00;93237.16;5050458;28;20490;-63
2023/01/15 12:45:11;;;;;;;1.60;0.65;;;;;;;2.04;100.00;93227.78;5051034;28;20099;-64
2023/01/15 12:47:42;;;;;;;1.77;0.70;;;;;;;1.89;100.00;93232.34;5050644;28;20413;-64
2023/01/15 12:50:30;;;;;;;2.05;0.82;;;;;;;1.69;100.00;93231.03;5051236;28;20448;-63